createdAt,value
2022-10-25T00:00:28.818Z,95.62
2022-10-25T00:02:55.442Z,95.82
2022-10-25T00:05:22.265Z,96.06
2022-10-25T00:07:49.179Z,96.42
2022-10-25T00:10:16.036Z,96.79
2022-10-25T00:12:44.651Z,97.13
2022-10-25T00:15:14.314Z,97.11
2022-10-25T00:17:41.746Z,97.54
2022-10-25T00:20:10.027Z,97.26
2022-10-25T00:22:37.196Z,97.58
2022-10-25T00:25:05.189Z,97.88
2022-10-25T00:27:31.765Z,97.88
2022-10-25T00:29:58.305Z,98.28
2022-10-25T00:32:24.974Z,98.00
2022-10-25T00:34:51.802Z,98.42
2022-10-25T00:37:19.254Z,98.78
2022-10-25T00:39:46.592Z,98.83
2022-10-25T00:42:21.395Z,99.04
2022-10-25T00:44:54.500Z,99.34
2022-10-25T00:47:21.101Z,100.00
2022-10-25T00:49:57.247Z,99.77
2022-10-25T00:52:24.820Z,100.00
2022-10-25T00:54:53.617Z,100.00
2022-10-25T00:57:55.084Z,100.00
2022-10-25T01:00:22.291Z,100.00
2022-10-25T01:02:49.224Z,100.00
2022-10-25T01:05:17.138Z,100.00
2022-10-25T01:07:44.974Z,100.00
2022-10-25T01:10:11.855Z,100.00
2022-10-25T01:12:38.387Z,100.00
2022-10-25T01:15:05.899Z,100.00
2022-10-25T01:17:41.540Z,100.00
2022-10-25T01:20:30.024Z,100.00
2022-10-25T01:23:21.547Z,100.00
2022-10-25T01:25:56.597Z,100.00
2022-10-25T01:28:26.264Z,100.00
2022-10-25T01:31:06.242Z,100.00
2022-10-25T01:33:44.739Z,100.00
2022-10-25T01:36:48.917Z,100.00
2022-10-25T01:39:39.667Z,100.00
2022-10-25T01:42:23.397Z,100.00
2022-10-25T01:44:59.001Z,100.00
2022-10-25T01:47:50.364Z,100.00
2022-10-25T01:50:28.304Z,100.00
2022-10-25T01:55:40.278Z,100.00
2022-10-25T01:58:25.499Z,100.00
2022-10-25T02:01:15.728Z,100.00
2022-10-25T02:04:05.008Z,100.00
2022-10-25T02:06:48.759Z,100.00
2022-10-25T02:09:47.060Z,100.00
2022-10-25T02:12:19.860Z,100.00
2022-10-25T02:15:12.100Z,100.00
2022-10-25T02:17:49.109Z,100.00
2022-10-25T02:20:19.718Z,100.00
2022-10-25T02:22:47.191Z,100.00
2022-10-25T02:25:14.832Z,100.00
2022-10-25T02:27:41.588Z,100.00
2022-10-25T02:30:09.193Z,100.00
2022-10-25T02:32:35.910Z,100.00
2022-10-25T02:35:02.910Z,100.00
2022-10-25T02:37:30.480Z,100.00
2022-10-25T02:39:57.248Z,100.00
2022-10-25T02:42:23.786Z,100.00
2022-10-25T02:44:50.418Z,100.00
2022-10-25T02:47:16.967Z,100.00
2022-10-25T02:49:43.641Z,100.00
2022-10-25T02:52:10.174Z,100.00
2022-10-25T02:54:36.790Z,100.00
2022-10-25T02:57:03.367Z,100.00
2022-10-25T02:59:30.020Z,100.00
2022-10-25T03:01:56.621Z,100.00
2022-10-25T03:04:23.363Z,100.00
2022-10-25T03:06:49.949Z,100.00
2022-10-25T03:09:16.549Z,100.00
2022-10-25T03:11:43.081Z,100.00
2022-10-25T03:14:09.638Z,100.00
2022-10-25T03:16:36.340Z,100.00
2022-10-25T03:19:03.093Z,100.00
2022-10-25T03:21:29.644Z,100.00
2022-10-25T03:23:56.285Z,100.00
2022-10-25T03:26:22.883Z,100.00
2022-10-25T03:28:49.524Z,100.00
2022-10-25T03:31:17.761Z,100.00
2022-10-25T03:33:44.560Z,100.00
2022-10-25T03:36:11.161Z,100.00
2022-10-25T03:38:37.785Z,100.00
2022-10-25T03:41:04.594Z,100.00
2022-10-25T03:43:31.189Z,100.00
2022-10-25T03:45:58.582Z,100.00
2022-10-25T03:48:25.334Z,100.00
2022-10-25T03:50:53.809Z,100.00
2022-10-25T03:53:20.772Z,100.00
2022-10-25T03:55:48.210Z,100.00
2022-10-25T03:58:14.795Z,100.00
2022-10-25T04:00:41.489Z,100.00
2022-10-25T04:03:09.347Z,100.00
2022-10-25T04:05:35.895Z,100.00
2022-10-25T04:08:02.460Z,100.00
2022-10-25T04:10:29.010Z,100.00
2022-10-25T04:12:55.626Z,100.00
2022-10-25T04:15:23.421Z,100.00
2022-10-25T04:17:53.483Z,100.00
2022-10-25T04:20:21.182Z,100.00
2022-10-25T04:22:55.813Z,100.00
2022-10-25T04:25:24.192Z,100.00
2022-10-25T04:27:50.818Z,100.00
2022-10-25T04:30:17.567Z,100.00
2022-10-25T04:32:44.316Z,100.00
2022-10-25T04:35:12.759Z,100.00
2022-10-25T04:37:39.440Z,100.00
2022-10-25T04:40:06.880Z,100.00
2022-10-25T04:42:34.400Z,100.00
2022-10-25T04:45:01.364Z,100.00
2022-10-25T04:47:31.314Z,100.00
2022-10-25T04:49:58.124Z,100.00
2022-10-25T04:52:24.785Z,100.00
2022-10-25T04:54:51.435Z,100.00
2022-10-25T04:57:17.958Z,100.00
2022-10-25T04:59:44.522Z,100.00
2022-10-25T05:02:12.362Z,100.00
2022-10-25T05:04:38.940Z,100.00
2022-10-25T05:07:05.483Z,100.00
2022-10-25T05:09:32.057Z,100.00
2022-10-25T05:11:58.663Z,100.00
2022-10-25T05:14:25.236Z,100.00
2022-10-25T05:16:51.832Z,100.00
2022-10-25T05:19:18.457Z,100.00
2022-10-25T05:21:45.001Z,100.00
2022-10-25T05:24:11.565Z,100.00
2022-10-25T05:26:38.217Z,100.00
2022-10-25T05:29:09.970Z,100.00
2022-10-25T05:31:38.715Z,100.00
2022-10-25T05:34:05.352Z,100.00
2022-10-25T05:36:33.754Z,100.00
2022-10-25T05:39:01.712Z,100.00
2022-10-25T05:41:30.817Z,100.00
2022-10-25T05:44:00.085Z,100.00
2022-10-25T05:46:27.075Z,100.00
2022-10-25T05:48:54.096Z,100.00
2022-10-25T05:51:34.546Z,100.00
2022-10-25T05:54:05.542Z,100.00
2022-10-25T05:56:33.255Z,100.00
2022-10-25T05:59:12.490Z,100.00
2022-10-25T06:01:41.744Z,100.00
2022-10-25T06:04:09.898Z,100.00
2022-10-25T06:06:38.577Z,100.00
2022-10-25T06:09:06.126Z,100.00
2022-10-25T06:11:33.862Z,100.00
2022-10-25T06:14:00.479Z,100.00
2022-10-25T06:16:27.121Z,100.00
2022-10-25T06:18:54.564Z,100.00
2022-10-25T06:21:24.392Z,100.00
2022-10-25T06:23:51.219Z,100.00
2022-10-25T06:26:20.495Z,100.00
2022-10-25T06:28:47.341Z,100.00
2022-10-25T06:31:16.534Z,100.00
2022-10-25T06:33:43.766Z,100.00
2022-10-25T06:36:14.910Z,100.00
2022-10-25T06:38:41.832Z,100.00
2022-10-25T06:41:12.703Z,100.00
2022-10-25T06:43:39.287Z,100.00
2022-10-25T06:46:07.681Z,100.00
2022-10-25T06:48:34.694Z,100.00
2022-10-25T06:51:03.390Z,100.00
2022-10-25T06:53:30.215Z,100.00
2022-10-25T06:56:05.502Z,100.00
2022-10-25T06:58:35.018Z,100.00
2022-10-25T07:01:02.647Z,100.00
2022-10-25T07:03:34.750Z,100.00
2022-10-25T07:06:25.697Z,100.00
2022-10-25T07:08:58.769Z,100.00
2022-10-25T07:11:26.871Z,100.00
2022-10-25T07:13:53.404Z,100.00
2022-10-25T07:16:21.189Z,100.00
2022-10-25T07:18:48.531Z,100.00
2022-10-25T07:21:17.882Z,100.00
2022-10-25T07:23:44.906Z,100.00
2022-10-25T07:26:12.891Z,100.00
2022-10-25T07:28:39.983Z,100.00
2022-10-25T07:31:07.619Z,100.00
2022-10-25T07:33:34.167Z,100.00
2022-10-25T07:36:11.245Z,100.00
2022-10-25T07:38:38.810Z,100.00
2022-10-25T07:41:05.852Z,100.00
2022-10-25T07:43:32.381Z,100.00
2022-10-25T07:45:59.042Z,100.00
2022-10-25T07:48:25.647Z,100.00
2022-10-25T07:50:52.294Z,100.00
2022-10-25T07:53:19.023Z,100.00
2022-10-25T07:55:55.638Z,100.00
2022-10-25T07:58:22.446Z,100.00
2022-10-25T08:00:49.172Z,100.00
2022-10-25T08:03:18.043Z,100.00
2022-10-25T08:05:46.321Z,100.00
2022-10-25T08:08:13.829Z,100.00
2022-10-25T08:10:44.598Z,100.00
2022-10-25T08:13:11.463Z,100.00
2022-10-25T08:15:40.774Z,100.00
2022-10-25T08:18:07.607Z,100.00
2022-10-25T08:20:56.773Z,100.00
2022-10-25T08:23:20.740Z,100.00
2022-10-25T08:25:47.332Z,100.00
2022-10-25T08:28:14.107Z,100.00
2022-10-25T08:30:41.324Z,100.00
2022-10-25T08:33:11.398Z,100.00
2022-10-25T08:35:38.423Z,100.00
2022-10-25T08:38:05.625Z,100.00
2022-10-25T08:40:42.967Z,100.00
2022-10-25T08:43:25.268Z,100.00
2022-10-25T08:46:10.326Z,100.00
2022-10-25T08:48:41.761Z,100.00
2022-10-25T08:51:22.418Z,100.00
2022-10-25T08:53:52.151Z,100.00
2022-10-25T08:56:19.331Z,100.00
2022-10-25T08:58:52.827Z,100.00
2022-10-25T09:01:26.622Z,100.00
2022-10-25T09:03:53.350Z,100.00
2022-10-25T09:06:36.204Z,100.00
2022-10-25T09:09:25.477Z,100.00
2022-10-25T09:12:16.640Z,100.00
2022-10-25T09:15:08.135Z,100.00
2022-10-25T09:17:50.267Z,100.00
2022-10-25T09:20:19.964Z,100.00
2022-10-25T09:22:50.044Z,100.00
2022-10-25T09:25:26.615Z,100.00
2022-10-25T09:28:03.678Z,100.00
2022-10-25T09:30:37.552Z,100.00
2022-10-25T09:33:10.489Z,100.00
2022-10-25T09:35:48.830Z,100.00
2022-10-25T09:38:29.695Z,99.13
2022-10-25T09:41:03.092Z,97.78
2022-10-25T09:43:37.632Z,99.65
2022-10-25T09:46:13.944Z,95.78
2022-10-25T09:48:53.225Z,94.49
2022-10-25T09:51:31.872Z,94.37
2022-10-25T09:54:02.102Z,94.42
2022-10-25T09:56:28.643Z,94.64
2022-10-25T09:58:55.276Z,95.05
2022-10-25T10:01:29.240Z,94.03
2022-10-25T10:04:12.567Z,94.07
2022-10-25T10:06:40.223Z,93.40
2022-10-25T10:09:10.821Z,93.31
2022-10-25T10:11:38.470Z,92.43
2022-10-25T10:14:16.123Z,93.07
2022-10-25T10:16:47.372Z,92.69
2022-10-25T10:19:18.711Z,94.33
2022-10-25T10:21:58.509Z,94.36
2022-10-25T10:24:33.697Z,93.37
2022-10-25T10:27:03.058Z,93.99
2022-10-25T10:29:38.451Z,94.12
2022-10-25T10:32:21.995Z,95.20
2022-10-25T10:34:55.054Z,94.10
2022-10-25T10:37:22.729Z,92.74
2022-10-25T10:39:58.433Z,91.14
2022-10-25T10:42:34.847Z,89.73
2022-10-25T10:45:09.111Z,89.39
2022-10-25T10:47:55.849Z,89.00
2022-10-25T10:50:22.559Z,86.45
2022-10-25T10:52:55.215Z,86.74
2022-10-25T10:55:37.905Z,84.85
2022-10-25T10:58:14.948Z,85.40
2022-10-25T11:00:52.742Z,85.44
2022-10-25T11:03:48.731Z,85.02
2022-10-25T11:06:36.548Z,83.37
2022-10-25T11:09:17.790Z,83.11
2022-10-25T11:11:45.982Z,81.36
2022-10-25T11:14:19.707Z,79.75
2022-10-25T11:17:10.985Z,78.67
2022-10-25T11:20:10.677Z,78.87
2022-10-25T11:23:06.759Z,76.74
2022-10-25T11:25:49.496Z,75.87
2022-10-25T11:28:48.247Z,77.19
2022-10-25T11:31:26.448Z,77.93
2022-10-25T11:34:48.867Z,79.13
2022-10-25T11:37:31.170Z,78.48
2022-10-25T11:40:06.761Z,74.77
2022-10-25T11:42:52.583Z,75.12
2022-10-25T11:45:27.497Z,75.01
2022-10-25T11:48:24.112Z,74.93
2022-10-25T11:51:12.404Z,75.56
2022-10-25T11:54:10.303Z,74.68
2022-10-25T11:56:56.808Z,75.15
2022-10-25T11:59:41.621Z,75.26
2022-10-25T12:02:36.025Z,75.70
2022-10-25T12:05:27.933Z,74.95
2022-10-25T12:08:13.713Z,73.62
2022-10-25T12:11:00.645Z,72.75
2022-10-25T12:13:35.601Z,73.18
2022-10-25T12:16:05.123Z,72.38
2022-10-25T12:18:45.890Z,71.76
2022-10-25T12:21:30.967Z,71.49
2022-10-25T12:23:57.907Z,71.49
2022-10-25T12:26:34.683Z,71.41
2022-10-25T12:29:10.659Z,71.72
2022-10-25T12:31:43.081Z,72.39
2022-10-25T12:34:17.454Z,70.92
2022-10-25T12:36:47.260Z,71.63
2022-10-25T12:39:30.580Z,71.07
2022-10-25T12:42:04.688Z,71.73
2022-10-25T12:45:08.048Z,72.37
2022-10-25T12:47:48.680Z,72.73
2022-10-25T12:50:50.674Z,71.25
2022-10-25T12:53:36.246Z,72.11
2022-10-25T12:56:27.428Z,71.73
2022-10-25T12:59:14.487Z,70.94
2022-10-25T13:02:05.677Z,71.76
2022-10-25T13:04:35.203Z,71.29
2022-10-25T13:07:05.096Z,69.24
2022-10-25T13:09:34.046Z,71.27
2022-10-25T13:12:30.558Z,72.02
2022-10-25T13:14:58.973Z,72.67
2022-10-25T13:17:25.466Z,73.71
2022-10-25T13:19:54.982Z,75.05
2022-10-25T13:22:27.931Z,76.14
2022-10-25T13:24:54.585Z,76.85
2022-10-25T13:27:27.121Z,77.48
2022-10-25T13:30:04.153Z,77.76
2022-10-25T13:32:39.404Z,78.17
2022-10-25T13:35:26.159Z,78.53
2022-10-25T13:38:07.815Z,79.13
2022-10-25T13:40:34.634Z,79.53
2022-10-25T13:43:04.210Z,80.08
2022-10-25T13:45:42.805Z,80.23
2022-10-25T13:48:20.227Z,80.27
2022-10-25T13:50:53.942Z,81.25
2022-10-25T13:53:32.725Z,81.70
2022-10-25T13:56:07.190Z,81.95
2022-10-25T13:58:33.897Z,82.18
2022-10-25T14:01:15.510Z,82.67
2022-10-25T14:03:50.006Z,82.70
2022-10-25T14:06:36.787Z,82.84
2022-10-25T14:09:08.913Z,82.40
2022-10-25T14:11:56.550Z,82.85
2022-10-25T14:14:48.078Z,82.95
2022-10-25T14:17:37.644Z,83.33
2022-10-25T14:20:10.470Z,83.59
2022-10-25T14:22:46.543Z,82.75
2022-10-25T14:25:39.821Z,82.77
2022-10-25T14:28:15.140Z,82.81
2022-10-25T14:30:47.861Z,83.66
2022-10-25T14:33:33.837Z,83.16
2022-10-25T14:36:04.969Z,82.75
2022-10-25T14:38:33.163Z,83.38
2022-10-25T14:41:02.599Z,83.47
2022-10-25T14:43:37.539Z,83.45
2022-10-25T14:46:17.977Z,83.38
2022-10-25T14:48:47.013Z,84.12
2022-10-25T14:51:24.257Z,84.79
2022-10-25T14:53:57.897Z,85.23
2022-10-25T14:56:38.346Z,85.21
2022-10-25T14:59:07.689Z,85.68
2022-10-25T15:01:35.381Z,85.91
2022-10-25T15:04:02.146Z,86.30
2022-10-25T15:06:32.157Z,86.30
2022-10-25T15:09:41.711Z,86.18
2022-10-25T15:12:11.733Z,86.41
2022-10-25T15:14:38.314Z,86.48
2022-10-25T15:17:16.357Z,86.39
2022-10-25T15:20:16.953Z,86.72
2022-10-25T15:22:49.474Z,86.42
2022-10-25T15:25:37.995Z,86.47
2022-10-25T15:28:13.061Z,86.49
2022-10-25T15:30:48.377Z,86.40
2022-10-25T15:33:19.835Z,86.90
2022-10-25T15:35:58.339Z,87.18
2022-10-25T15:38:47.808Z,87.42
2022-10-25T15:41:17.907Z,87.64
2022-10-25T15:43:44.494Z,87.74
2022-10-25T15:46:24.737Z,88.15
2022-10-25T15:48:51.800Z,88.77
2022-10-25T15:51:18.943Z,89.23
2022-10-25T15:53:45.495Z,89.92
2022-10-25T15:56:15.004Z,90.14
2022-10-25T15:58:41.559Z,90.02
2022-10-25T16:01:08.295Z,90.67
2022-10-25T16:03:34.862Z,91.21
2022-10-25T16:06:01.432Z,91.87
2022-10-25T16:08:28.102Z,91.95
2022-10-25T16:10:54.754Z,92.70
2022-10-25T16:13:27.482Z,92.88
2022-10-25T16:15:55.187Z,93.34
2022-10-25T16:18:21.841Z,94.19
2022-10-25T16:20:49.038Z,94.32
2022-10-25T16:23:17.290Z,95.20
2022-10-25T16:25:44.129Z,95.74
2022-10-25T16:28:14.358Z,95.69
2022-10-25T16:30:43.757Z,96.03
2022-10-25T16:33:10.564Z,96.98
2022-10-25T16:35:37.186Z,97.02
2022-10-25T16:38:04.437Z,97.41
2022-10-25T16:40:31.186Z,97.58
2022-10-25T16:42:58.387Z,98.11
2022-10-25T16:45:28.723Z,98.40
2022-10-25T16:47:57.018Z,98.44
2022-10-25T16:50:27.473Z,98.74
2022-10-25T16:52:57.048Z,99.18
2022-10-25T16:55:24.749Z,99.17
2022-10-25T16:57:51.267Z,99.34
2022-10-25T17:00:17.851Z,99.77
2022-10-25T17:02:44.382Z,100.00
2022-10-25T17:05:18.790Z,100.00
2022-10-25T17:07:45.907Z,100.00
2022-10-25T17:10:14.053Z,100.00
2022-10-25T17:12:52.097Z,100.00
2022-10-25T17:15:20.968Z,100.00
2022-10-25T17:17:48.246Z,100.00
2022-10-25T17:20:16.480Z,100.00
2022-10-25T17:22:44.092Z,100.00
2022-10-25T17:25:11.544Z,100.00
2022-10-25T17:27:40.470Z,100.00
2022-10-25T17:30:08.543Z,100.00
2022-10-25T17:32:35.463Z,100.00
2022-10-25T17:35:02.031Z,100.00
2022-10-25T17:37:28.875Z,100.00
2022-10-25T17:39:55.413Z,100.00
2022-10-25T17:42:22.345Z,100.00
2022-10-25T17:44:49.247Z,100.00
2022-10-25T17:47:16.238Z,100.00
2022-10-25T17:49:42.884Z,100.00
2022-10-25T17:52:09.766Z,100.00
2022-10-25T17:54:38.512Z,100.00
2022-10-25T17:57:05.912Z,100.00
2022-10-25T17:59:33.197Z,100.00
2022-10-25T18:02:00.026Z,100.00
2022-10-25T18:04:26.882Z,100.00
2022-10-25T18:06:53.637Z,100.00
2022-10-25T18:09:21.717Z,100.00
2022-10-25T18:11:48.503Z,100.00
2022-10-25T18:14:15.087Z,100.00
2022-10-25T18:16:41.648Z,100.00
2022-10-25T18:19:12.767Z,100.00
2022-10-25T18:21:39.487Z,100.00
2022-10-25T18:24:06.480Z,100.00
2022-10-25T18:26:34.155Z,100.00
2022-10-25T18:29:00.673Z,100.00
2022-10-25T18:31:27.570Z,100.00
2022-10-25T18:33:55.453Z,100.00
2022-10-25T18:36:22.106Z,100.00
2022-10-25T18:38:49.465Z,100.00
2022-10-25T18:41:18.974Z,100.00
2022-10-25T18:43:45.826Z,100.00
2022-10-25T18:46:12.971Z,100.00
2022-10-25T18:48:39.868Z,100.00
2022-10-25T18:51:10.182Z,100.00
2022-10-25T18:53:38.565Z,100.00
2022-10-25T18:56:19.546Z,100.00
2022-10-25T18:58:48.963Z,100.00
2022-10-25T19:01:20.947Z,100.00
2022-10-25T19:03:47.623Z,100.00
2022-10-25T19:06:14.749Z,100.00
2022-10-25T19:08:41.406Z,100.00
2022-10-25T19:11:10.688Z,100.00
2022-10-25T19:13:37.600Z,100.00
2022-10-25T19:16:05.168Z,100.00
2022-10-25T19:18:33.754Z,100.00
2022-10-25T19:21:06.458Z,100.00
2022-10-25T19:23:33.357Z,100.00
2022-10-25T19:26:04.943Z,100.00
2022-10-25T19:28:32.131Z,100.00
2022-10-25T19:31:14.195Z,100.00
2022-10-25T19:33:46.170Z,100.00
2022-10-25T19:36:12.813Z,100.00
2022-10-25T19:38:40.342Z,100.00
2022-10-25T19:41:10.050Z,100.00
2022-10-25T19:43:36.613Z,100.00
2022-10-25T19:46:05.369Z,100.00
2022-10-25T19:48:33.014Z,100.00
2022-10-25T19:51:10.914Z,100.00
2022-10-25T19:53:37.663Z,100.00
2022-10-25T19:56:08.559Z,100.00
2022-10-25T19:58:35.702Z,100.00
2022-10-25T20:01:14.040Z,100.00
2022-10-25T20:03:41.767Z,100.00
2022-10-25T20:06:20.050Z,100.00
2022-10-25T20:08:50.114Z,100.00
2022-10-25T20:11:18.115Z,100.00
2022-10-25T20:13:45.436Z,100.00
2022-10-25T20:16:13.808Z,100.00
2022-10-25T20:18:41.431Z,100.00
2022-10-25T20:21:11.410Z,100.00
2022-10-25T20:23:39.081Z,100.00
2022-10-25T20:26:18.165Z,100.00
2022-10-25T20:28:46.286Z,100.00
2022-10-25T20:31:13.731Z,100.00
2022-10-25T20:33:40.866Z,100.00
2022-10-25T20:36:10.559Z,100.00
2022-10-25T20:38:37.829Z,100.00
2022-10-25T20:41:05.407Z,100.00
2022-10-25T20:43:32.826Z,100.00
2022-10-25T20:45:59.973Z,100.00
2022-10-25T20:48:27.041Z,100.00
2022-10-25T20:55:49.578Z,100.00
2022-10-25T20:58:17.454Z,100.00
2022-10-25T21:00:45.331Z,100.00
2022-10-25T21:03:13.029Z,100.00
2022-10-25T21:05:43.052Z,100.00
2022-10-25T21:08:10.588Z,100.00
2022-10-25T21:10:37.333Z,100.00
2022-10-25T21:13:04.065Z,100.00
2022-10-25T21:15:30.659Z,100.00
2022-10-25T21:17:57.152Z,100.00
2022-10-25T21:20:23.908Z,100.00
2022-10-25T21:22:50.494Z,100.00
2022-10-25T21:25:17.060Z,100.00
2022-10-25T21:27:43.609Z,100.00
2022-10-25T21:30:10.597Z,100.00
2022-10-25T21:32:37.082Z,100.00
2022-10-25T21:35:03.808Z,100.00
2022-10-25T21:37:30.277Z,100.00
2022-10-25T21:39:56.827Z,100.00
2022-10-25T21:42:23.386Z,100.00
2022-10-25T21:44:49.922Z,100.00
2022-10-25T21:47:16.432Z,100.00
2022-10-25T21:49:43.021Z,100.00
2022-10-25T21:52:09.650Z,100.00
2022-10-25T21:54:36.187Z,100.00
2022-10-25T21:57:02.760Z,100.00
2022-10-25T21:59:29.361Z,100.00
2022-10-25T22:01:56.048Z,100.00
2022-10-25T22:04:23.877Z,100.00
2022-10-25T22:06:50.426Z,100.00
2022-10-25T22:09:16.989Z,100.00
2022-10-25T22:11:43.555Z,100.00
2022-10-25T22:14:13.288Z,100.00
2022-10-25T22:16:40.408Z,100.00
2022-10-25T22:19:12.846Z,100.00
2022-10-25T22:21:40.774Z,100.00
2022-10-25T22:24:09.158Z,100.00
2022-10-25T22:26:37.818Z,100.00
2022-10-25T22:29:04.700Z,100.00
2022-10-25T22:31:32.591Z,100.00
2022-10-25T22:34:02.633Z,100.00
2022-10-25T22:36:31.662Z,100.00
2022-10-25T22:38:58.621Z,100.00
2022-10-25T22:41:27.161Z,100.00
2022-10-25T22:43:54.205Z,100.00
2022-10-25T22:46:25.278Z,100.00
2022-10-25T22:48:53.979Z,100.00
2022-10-25T22:51:22.289Z,100.00
2022-10-25T22:53:48.832Z,100.00
2022-10-25T22:56:20.803Z,100.00
2022-10-25T22:58:53.165Z,100.00
2022-10-25T23:01:23.211Z,100.00
2022-10-25T23:03:54.910Z,100.00
2022-10-25T23:06:29.565Z,100.00
2022-10-25T23:08:57.985Z,100.00
2022-10-25T23:11:27.129Z,100.00
2022-10-25T23:13:53.924Z,100.00
2022-10-25T23:16:20.922Z,100.00
2022-10-25T23:18:47.577Z,100.00
2022-10-25T23:21:20.002Z,100.00
2022-10-25T23:23:46.974Z,100.00
2022-10-25T23:26:24.964Z,100.00
2022-10-25T23:28:51.497Z,100.00
2022-10-25T23:31:18.362Z,100.00
2022-10-25T23:33:45.338Z,100.00
2022-10-25T23:36:15.678Z,100.00
2022-10-25T23:38:45.856Z,100.00
2022-10-25T23:41:12.845Z,100.00
2022-10-25T23:43:39.793Z,100.00
2022-10-25T23:46:08.281Z,100.00
2022-10-25T23:48:35.441Z,100.00
2022-10-25T23:51:13.307Z,100.00
2022-10-25T23:53:40.203Z,100.00
2022-10-25T23:56:08.783Z,100.00
2022-10-25T23:58:35.752Z,100.00
